Astin, Texas
Current Conditions -  °F | °C
As of 5:55 AM on Sunday 21 Dec 2014 (Local Time) from KLHB Reporting Station
Haze Haze  
Wind Chill: 47°   Ceiling: 1800
Heat Index: 47°   Visibility: 5mi
Dew Point: 46°   Wind: 0mph
Humidity: 97%   Direction: NA
Pressure: 30.14"   Gusts: NA
Location:  30.8324°N, 96.5749°W
Report Text: KLHB 211155Z AUTO 00000KT 5SM BR SCT004 SCT013 OVC018 09/08 A3014 RMK AO2 T00850080 10090 20083
Loading
Personal Weather Stations






























Interactive Weather Map New forecast layout! Learn more

10-Day Weather Forecast

Advertisements
Track Severe Weather on mobile